sensor_id;sensor_type;location;lat;lon;timestamp;P1;durP1;ratioP1;P2;durP2;ratioP2
50309;SDS011;36207;51.850;21.698;2023-02-11T00:02:02;52.20;;;25.60;;
50309;SDS011;36207;51.850;21.698;2023-02-11T00:04:30;58.20;;;26.60;;
50309;SDS011;36207;51.850;21.698;2023-02-11T00:06:56;57.00;;;26.50;;
50309;SDS011;36207;51.850;21.698;2023-02-11T00:09:22;57.30;;;25.50;;
50309;SDS011;36207;51.850;21.698;2023-02-11T00:11:48;49.50;;;25.10;;
50309;SDS011;36207;51.850;21.698;2023-02-11T00:14:14;51.80;;;25.90;;
50309;SDS011;36207;51.850;21.698;2023-02-11T00:16:40;49.70;;;25.50;;
50309;SDS011;36207;51.850;21.698;2023-02-11T00:19:09;50.50;;;24.70;;
50309;SDS011;36207;51.850;21.698;2023-02-11T00:21:35;51.30;;;24.60;;
50309;SDS011;36207;51.850;21.698;2023-02-11T00:24:01;51.80;;;25.40;;
50309;SDS011;36207;51.850;21.698;2023-02-11T00:26:29;53.30;;;25.00;;
50309;SDS011;36207;51.850;21.698;2023-02-11T00:28:57;46.90;;;23.00;;
50309;SDS011;36207;51.850;21.698;2023-02-11T00:31:25;49.20;;;23.90;;
50309;SDS011;36207;51.850;21.698;2023-02-11T00:33:51;43.40;;;22.20;;
50309;SDS011;36207;51.850;21.698;2023-02-11T00:36:20;52.70;;;24.20;;
50309;SDS011;36207;51.850;21.698;2023-02-11T00:38:48;49.60;;;23.50;;
50309;SDS011;36207;51.850;21.698;2023-02-11T00:41:15;50.00;;;22.20;;
50309;SDS011;36207;51.850;21.698;2023-02-11T00:43:42;48.80;;;24.00;;
50309;SDS011;36207;51.850;21.698;2023-02-11T00:46:08;48.50;;;22.30;;
50309;SDS011;36207;51.850;21.698;2023-02-11T00:48:35;48.20;;;23.00;;
50309;SDS011;36207;51.850;21.698;2023-02-11T00:51:01;46.00;;;22.10;;
50309;SDS011;36207;51.850;21.698;2023-02-11T00:53:29;45.70;;;22.20;;
50309;SDS011;36207;51.850;21.698;2023-02-11T00:55:55;44.60;;;21.20;;
50309;SDS011;36207;51.850;21.698;2023-02-11T00:58:21;43.20;;;21.10;;
50309;SDS011;36207;51.850;21.698;2023-02-11T01:00:47;43.90;;;20.50;;
50309;SDS011;36207;51.850;21.698;2023-02-11T01:03:13;43.70;;;20.40;;
50309;SDS011;36207;51.850;21.698;2023-02-11T01:05:40;41.90;;;20.30;;
50309;SDS011;36207;51.850;21.698;2023-02-11T01:08:06;39.90;;;19.80;;
50309;SDS011;36207;51.850;21.698;2023-02-11T01:10:32;46.40;;;20.50;;
50309;SDS011;36207;51.850;21.698;2023-02-11T01:12:58;42.10;;;19.60;;
50309;SDS011;36207;51.850;21.698;2023-02-11T01:15:24;42.10;;;21.10;;
50309;SDS011;36207;51.850;21.698;2023-02-11T01:17:50;37.10;;;18.80;;
50309;SDS011;36207;51.850;21.698;2023-02-11T01:20:18;38.10;;;19.60;;
50309;SDS011;36207;51.850;21.698;2023-02-11T01:22:47;41.00;;;18.80;;
50309;SDS011;36207;51.850;21.698;2023-02-11T01:25:12;40.90;;;18.70;;
50309;SDS011;36207;51.850;21.698;2023-02-11T01:27:38;36.60;;;17.40;;
50309;SDS011;36207;51.850;21.698;2023-02-11T01:30:05;39.30;;;18.70;;
50309;SDS011;36207;51.850;21.698;2023-02-11T01:32:33;37.80;;;18.80;;
50309;SDS011;36207;51.850;21.698;2023-02-11T01:34:59;34.50;;;17.20;;
50309;SDS011;36207;51.850;21.698;2023-02-11T01:37:25;37.90;;;17.90;;
50309;SDS011;36207;51.850;21.698;2023-02-11T01:39:51;35.00;;;17.10;;
50309;SDS011;36207;51.850;21.698;2023-02-11T01:42:18;38.40;;;17.80;;
50309;SDS011;36207;51.850;21.698;2023-02-11T01:44:48;36.00;;;17.20;;
50309;SDS011;36207;51.850;21.698;2023-02-11T01:47:16;37.70;;;17.30;;
50309;SDS011;36207;51.850;21.698;2023-02-11T01:49:45;32.30;;;17.30;;
50309;SDS011;36207;51.850;21.698;2023-02-11T01:52:34;33.10;;;15.90;;
50309;SDS011;36207;51.850;21.698;2023-02-11T01:55:05;34.60;;;16.10;;
50309;SDS011;36207;51.850;21.698;2023-02-11T01:57:53;30.00;;;15.20;;
50309;SDS011;36207;51.850;21.698;2023-02-11T02:00:34;30.20;;;14.20;;
50309;SDS011;36207;51.850;21.698;2023-02-11T02:03:19;29.90;;;15.00;;
50309;SDS011;36207;51.850;21.698;2023-02-11T02:08:30;31.30;;;14.70;;
50309;SDS011;36207;51.850;21.698;2023-02-11T02:11:08;30.80;;;14.40;;
50309;SDS011;36207;51.850;21.698;2023-02-11T02:13:34;32.60;;;15.10;;
50309;SDS011;36207;51.850;21.698;2023-02-11T02:16:02;28.50;;;14.70;;
50309;SDS011;36207;51.850;21.698;2023-02-11T02:38:07;29.30;;;14.50;;
50309;SDS011;36207;51.850;21.698;2023-02-11T02:40:47;26.70;;;13.70;;
50309;SDS011;36207;51.850;21.698;2023-02-11T02:43:18;31.10;;;14.30;;
50309;SDS011;36207;51.850;21.698;2023-02-11T02:45:46;30.60;;;14.40;;
50309;SDS011;36207;51.850;21.698;2023-02-11T02:48:28;31.40;;;14.40;;
50309;SDS011;36207;51.850;21.698;2023-02-11T02:51:08;33.00;;;15.00;;
50309;SDS011;36207;51.850;21.698;2023-02-11T02:59:58;28.10;;;14.40;;
50309;SDS011;36207;51.850;21.698;2023-02-11T03:05:41;26.50;;;14.10;;
50309;SDS011;36207;51.850;21.698;2023-02-11T03:08:40;26.90;;;13.30;;
50309;SDS011;36207;51.850;21.698;2023-02-11T03:11:08;27.70;;;13.00;;
50309;SDS011;36207;51.850;21.698;2023-02-11T03:13:35;26.60;;;12.60;;
50309;SDS011;36207;51.850;21.698;2023-02-11T03:16:11;25.90;;;13.40;;
50309;SDS011;36207;51.850;21.698;2023-02-11T03:18:41;29.10;;;13.30;;
50309;SDS011;36207;51.850;21.698;2023-02-11T03:21:12;26.00;;;12.20;;
50309;SDS011;36207;51.850;21.698;2023-02-11T03:23:42;28.70;;;12.30;;
50309;SDS011;36207;51.850;21.698;2023-02-11T03:26:22;25.50;;;12.50;;
50309;SDS011;36207;51.850;21.698;2023-02-11T03:29:05;27.10;;;12.30;;
50309;SDS011;36207;51.850;21.698;2023-02-11T03:31:46;24.70;;;12.20;;
50309;SDS011;36207;51.850;21.698;2023-02-11T03:37:05;24.00;;;11.60;;
50309;SDS011;36207;51.850;21.698;2023-02-11T03:39:51;25.40;;;12.00;;
50309;SDS011;36207;51.850;21.698;2023-02-11T03:42:22;26.10;;;12.40;;
50309;SDS011;36207;51.850;21.698;2023-02-11T03:44:54;27.80;;;10.90;;
50309;SDS011;36207;51.850;21.698;2023-02-11T03:47:26;24.30;;;11.60;;
50309;SDS011;36207;51.850;21.698;2023-02-11T03:49:56;25.20;;;11.40;;
50309;SDS011;36207;51.850;21.698;2023-02-11T03:52:26;28.30;;;11.70;;
50309;SDS011;36207;51.850;21.698;2023-02-11T03:54:54;21.50;;;11.30;;
50309;SDS011;36207;51.850;21.698;2023-02-11T03:57:22;25.10;;;11.40;;
50309;SDS011;36207;51.850;21.698;2023-02-11T03:59:49;23.50;;;11.40;;
50309;SDS011;36207;51.850;21.698;2023-02-11T04:02:17;23.40;;;11.00;;
50309;SDS011;36207;51.850;21.698;2023-02-11T04:04:44;26.30;;;10.90;;
50309;SDS011;36207;51.850;21.698;2023-02-11T04:07:11;27.10;;;11.30;;
50309;SDS011;36207;51.850;21.698;2023-02-11T04:09:37;25.70;;;10.30;;
50309;SDS011;36207;51.850;21.698;2023-02-11T04:12:03;22.50;;;10.60;;
50309;SDS011;36207;51.850;21.698;2023-02-11T04:14:29;25.40;;;10.80;;
50309;SDS011;36207;51.850;21.698;2023-02-11T04:16:55;21.70;;;10.30;;
50309;SDS011;36207;51.850;21.698;2023-02-11T04:19:21;25.10;;;11.20;;
50309;SDS011;36207;51.850;21.698;2023-02-11T04:21:47;21.30;;;10.80;;
50309;SDS011;36207;51.850;21.698;2023-02-11T04:24:13;21.40;;;10.60;;
50309;SDS011;36207;51.850;21.698;2023-02-11T04:26:39;22.50;;;10.60;;
50309;SDS011;36207;51.850;21.698;2023-02-11T04:29:05;24.10;;;10.50;;
50309;SDS011;36207;51.850;21.698;2023-02-11T04:31:31;25.10;;;10.60;;
50309;SDS011;36207;51.850;21.698;2023-02-11T04:33:57;23.10;;;10.20;;
50309;SDS011;36207;51.850;21.698;2023-02-11T04:36:23;21.80;;;11.30;;
50309;SDS011;36207;51.850;21.698;2023-02-11T04:38:49;22.90;;;11.10;;
50309;SDS011;36207;51.850;21.698;2023-02-11T04:41:14;22.40;;;11.00;;
50309;SDS011;36207;51.850;21.698;2023-02-11T04:43:40;24.30;;;10.50;;
50309;SDS011;36207;51.850;21.698;2023-02-11T04:46:06;23.40;;;11.00;;
50309;SDS011;36207;51.850;21.698;2023-02-11T04:48:32;29.20;;;10.90;;
50309;SDS011;36207;51.850;21.698;2023-02-11T04:50:59;24.30;;;10.30;;
50309;SDS011;36207;51.850;21.698;2023-02-11T04:53:26;23.40;;;11.70;;
50309;SDS011;36207;51.850;21.698;2023-02-11T04:55:52;27.00;;;11.20;;
50309;SDS011;36207;51.850;21.698;2023-02-11T04:58:18;23.20;;;10.90;;
50309;SDS011;36207;51.850;21.698;2023-02-11T05:00:45;22.50;;;11.40;;
50309;SDS011;36207;51.850;21.698;2023-02-11T05:03:11;22.60;;;11.40;;
50309;SDS011;36207;51.850;21.698;2023-02-11T05:05:38;24.20;;;12.20;;
50309;SDS011;36207;51.850;21.698;2023-02-11T05:08:06;23.80;;;11.40;;
50309;SDS011;36207;51.850;21.698;2023-02-11T05:10:32;24.50;;;12.00;;
50309;SDS011;36207;51.850;21.698;2023-02-11T05:12:58;28.20;;;12.10;;
50309;SDS011;36207;51.850;21.698;2023-02-11T05:15:25;26.30;;;12.60;;
50309;SDS011;36207;51.850;21.698;2023-02-11T05:17:51;24.40;;;11.70;;
50309;SDS011;36207;51.850;21.698;2023-02-11T05:20:18;25.30;;;12.40;;
50309;SDS011;36207;51.850;21.698;2023-02-11T05:22:44;22.80;;;12.00;;
50309;SDS011;36207;51.850;21.698;2023-02-11T05:25:10;26.20;;;12.10;;
50309;SDS011;36207;51.850;21.698;2023-02-11T05:27:39;27.80;;;14.00;;
50309;SDS011;36207;51.850;21.698;2023-02-11T05:30:05;25.20;;;12.90;;
50309;SDS011;36207;51.850;21.698;2023-02-11T05:32:32;32.30;;;13.50;;
50309;SDS011;36207;51.850;21.698;2023-02-11T05:34:58;26.40;;;13.30;;
50309;SDS011;36207;51.850;21.698;2023-02-11T05:37:24;30.80;;;13.40;;
50309;SDS011;36207;51.850;21.698;2023-02-11T05:39:50;25.40;;;13.50;;
50309;SDS011;36207;51.850;21.698;2023-02-11T05:42:15;27.30;;;14.80;;
50309;SDS011;36207;51.850;21.698;2023-02-11T05:44:41;27.60;;;13.90;;
50309;SDS011;36207;51.850;21.698;2023-02-11T05:47:07;26.00;;;14.20;;
50309;SDS011;36207;51.850;21.698;2023-02-11T05:49:33;32.30;;;14.80;;
50309;SDS011;36207;51.850;21.698;2023-02-11T05:51:59;26.20;;;14.30;;
50309;SDS011;36207;51.850;21.698;2023-02-11T05:54:25;28.60;;;15.10;;
50309;SDS011;36207;51.850;21.698;2023-02-11T05:56:51;34.10;;;16.40;;
50309;SDS011;36207;51.850;21.698;2023-02-11T05:59:18;27.10;;;14.80;;
50309;SDS011;36207;51.850;21.698;2023-02-11T06:01:44;32.80;;;16.20;;
50309;SDS011;36207;51.850;21.698;2023-02-11T06:04:10;30.00;;;16.10;;
50309;SDS011;36207;51.850;21.698;2023-02-11T06:06:36;28.90;;;15.20;;
50309;SDS011;36207;51.850;21.698;2023-02-11T06:09:02;31.60;;;16.10;;
50309;SDS011;36207;51.850;21.698;2023-02-11T06:11:28;30.60;;;16.30;;
50309;SDS011;36207;51.850;21.698;2023-02-11T06:13:54;29.80;;;16.40;;
50309;SDS011;36207;51.850;21.698;2023-02-11T06:16:20;34.30;;;16.90;;
50309;SDS011;36207;51.850;21.698;2023-02-11T06:18:46;32.50;;;17.20;;
50309;SDS011;36207;51.850;21.698;2023-02-11T06:21:12;31.10;;;16.80;;
50309;SDS011;36207;51.850;21.698;2023-02-11T06:23:38;32.10;;;16.80;;
50309;SDS011;36207;51.850;21.698;2023-02-11T06:26:05;32.70;;;17.20;;
50309;SDS011;36207;51.850;21.698;2023-02-11T06:28:32;33.60;;;17.70;;
50309;SDS011;36207;51.850;21.698;2023-02-11T06:31:04;31.00;;;16.20;;
50309;SDS011;36207;51.850;21.698;2023-02-11T06:33:31;31.70;;;16.90;;
50309;SDS011;36207;51.850;21.698;2023-02-11T06:35:58;34.30;;;17.10;;
50309;SDS011;36207;51.850;21.698;2023-02-11T06:38:24;33.30;;;17.90;;
50309;SDS011;36207;51.850;21.698;2023-02-11T06:40:50;33.80;;;17.10;;
50309;SDS011;36207;51.850;21.698;2023-02-11T06:43:16;33.10;;;18.10;;
50309;SDS011;36207;51.850;21.698;2023-02-11T06:45:42;32.80;;;17.80;;
50309;SDS011;36207;51.850;21.698;2023-02-11T06:48:08;34.40;;;18.00;;
50309;SDS011;36207;51.850;21.698;2023-02-11T06:50:34;34.90;;;18.90;;
50309;SDS011;36207;51.850;21.698;2023-02-11T06:53:00;31.90;;;17.90;;
50309;SDS011;36207;51.850;21.698;2023-02-11T06:55:26;37.60;;;19.50;;
50309;SDS011;36207;51.850;21.698;2023-02-11T06:57:52;35.50;;;19.00;;
50309;SDS011;36207;51.850;21.698;2023-02-11T07:00:18;32.80;;;18.10;;
50309;SDS011;36207;51.850;21.698;2023-02-11T07:02:44;34.90;;;18.80;;
50309;SDS011;36207;51.850;21.698;2023-02-11T07:05:10;36.10;;;19.40;;
50309;SDS011;36207;51.850;21.698;2023-02-11T07:07:36;33.70;;;19.10;;
50309;SDS011;36207;51.850;21.698;2023-02-11T07:10:02;36.90;;;19.30;;
50309;SDS011;36207;51.850;21.698;2023-02-11T07:12:29;36.50;;;19.00;;
50309;SDS011;36207;51.850;21.698;2023-02-11T07:14:56;35.60;;;20.10;;
50309;SDS011;36207;51.850;21.698;2023-02-11T07:17:22;40.30;;;20.10;;
50309;SDS011;36207;51.850;21.698;2023-02-11T07:19:48;37.70;;;20.70;;
50309;SDS011;36207;51.850;21.698;2023-02-11T07:22:14;40.30;;;20.60;;
50309;SDS011;36207;51.850;21.698;2023-02-11T07:24:40;40.10;;;20.60;;
50309;SDS011;36207;51.850;21.698;2023-02-11T07:27:06;36.90;;;20.20;;
50309;SDS011;36207;51.850;21.698;2023-02-11T07:29:32;38.60;;;20.90;;
50309;SDS011;36207;51.850;21.698;2023-02-11T07:31:58;38.10;;;21.30;;
50309;SDS011;36207;51.850;21.698;2023-02-11T07:34:24;39.40;;;21.30;;
50309;SDS011;36207;51.850;21.698;2023-02-11T07:36:50;43.40;;;22.00;;
50309;SDS011;36207;51.850;21.698;2023-02-11T07:39:15;39.10;;;21.30;;
50309;SDS011;36207;51.850;21.698;2023-02-11T07:41:42;38.50;;;22.70;;
50309;SDS011;36207;51.850;21.698;2023-02-11T07:44:09;38.40;;;21.40;;
50309;SDS011;36207;51.850;21.698;2023-02-11T07:46:35;37.80;;;22.30;;
50309;SDS011;36207;51.850;21.698;2023-02-11T07:49:01;42.10;;;23.10;;
50309;SDS011;36207;51.850;21.698;2023-02-11T07:51:28;44.30;;;22.90;;
50309;SDS011;36207;51.850;21.698;2023-02-11T07:53:56;40.90;;;22.30;;
50309;SDS011;36207;51.850;21.698;2023-02-11T07:56:24;39.20;;;22.20;;
50309;SDS011;36207;51.850;21.698;2023-02-11T07:58:51;45.60;;;23.90;;
50309;SDS011;36207;51.850;21.698;2023-02-11T08:01:19;41.90;;;22.80;;
50309;SDS011;36207;51.850;21.698;2023-02-11T08:03:47;45.20;;;25.10;;
50309;SDS011;36207;51.850;21.698;2023-02-11T08:06:14;42.50;;;23.00;;
50309;SDS011;36207;51.850;21.698;2023-02-11T08:08:41;41.40;;;23.40;;
50309;SDS011;36207;51.850;21.698;2023-02-11T08:11:09;45.10;;;24.90;;
50309;SDS011;36207;51.850;21.698;2023-02-11T08:13:39;44.00;;;23.90;;
50309;SDS011;36207;51.850;21.698;2023-02-11T08:16:06;43.50;;;24.30;;
50309;SDS011;36207;51.850;21.698;2023-02-11T08:18:33;44.40;;;24.80;;
50309;SDS011;36207;51.850;21.698;2023-02-11T08:21:06;42.40;;;24.80;;
50309;SDS011;36207;51.850;21.698;2023-02-11T08:23:37;46.10;;;25.30;;
50309;SDS011;36207;51.850;21.698;2023-02-11T08:26:06;47.40;;;24.20;;
50309;SDS011;36207;51.850;21.698;2023-02-11T08:28:35;48.50;;;26.10;;
50309;SDS011;36207;51.850;21.698;2023-02-11T08:31:08;48.20;;;25.10;;
50309;SDS011;36207;51.850;21.698;2023-02-11T08:33:36;47.70;;;25.20;;
50309;SDS011;36207;51.850;21.698;2023-02-11T08:36:12;45.70;;;25.20;;
50309;SDS011;36207;51.850;21.698;2023-02-11T08:38:40;45.90;;;24.40;;
50309;SDS011;36207;51.850;21.698;2023-02-11T08:41:06;42.90;;;24.20;;
50309;SDS011;36207;51.850;21.698;2023-02-11T08:43:33;43.80;;;24.40;;
50309;SDS011;36207;51.850;21.698;2023-02-11T08:46:00;48.10;;;25.00;;
50309;SDS011;36207;51.850;21.698;2023-02-11T08:48:26;46.40;;;24.40;;
50309;SDS011;36207;51.850;21.698;2023-02-11T08:50:56;48.80;;;25.40;;
50309;SDS011;36207;51.850;21.698;2023-02-11T08:53:22;43.70;;;24.50;;
50309;SDS011;36207;51.850;21.698;2023-02-11T08:55:49;47.70;;;25.70;;
50309;SDS011;36207;51.850;21.698;2023-02-11T08:58:20;44.30;;;24.90;;
50309;SDS011;36207;51.850;21.698;2023-02-11T09:00:47;48.10;;;25.80;;
50309;SDS011;36207;51.850;21.698;2023-02-11T09:03:14;46.30;;;25.50;;
50309;SDS011;36207;51.850;21.698;2023-02-11T09:05:41;45.90;;;25.10;;
50309;SDS011;36207;51.850;21.698;2023-02-11T09:08:08;46.60;;;25.20;;
50309;SDS011;36207;51.850;21.698;2023-02-11T09:10:34;43.60;;;24.40;;
50309;SDS011;36207;51.850;21.698;2023-02-11T09:13:01;47.10;;;25.60;;
50309;SDS011;36207;51.850;21.698;2023-02-11T09:15:27;45.50;;;25.20;;
50309;SDS011;36207;51.850;21.698;2023-02-11T09:17:53;45.70;;;25.50;;
50309;SDS011;36207;51.850;21.698;2023-02-11T09:20:18;47.10;;;24.70;;
50309;SDS011;36207;51.850;21.698;2023-02-11T09:22:46;47.20;;;25.10;;
50309;SDS011;36207;51.850;21.698;2023-02-11T09:25:12;47.30;;;25.70;;
50309;SDS011;36207;51.850;21.698;2023-02-11T09:27:38;46.20;;;25.80;;
50309;SDS011;36207;51.850;21.698;2023-02-11T09:30:04;45.40;;;25.70;;
50309;SDS011;36207;51.850;21.698;2023-02-11T09:32:30;47.60;;;26.20;;
50309;SDS011;36207;51.850;21.698;2023-02-11T09:34:56;48.60;;;25.80;;
50309;SDS011;36207;51.850;21.698;2023-02-11T09:37:22;47.20;;;25.30;;
50309;SDS011;36207;51.850;21.698;2023-02-11T09:39:48;47.30;;;25.60;;
50309;SDS011;36207;51.850;21.698;2023-02-11T09:44:59;44.80;;;25.20;;
50309;SDS011;36207;51.850;21.698;2023-02-11T09:47:31;48.10;;;25.90;;
50309;SDS011;36207;51.850;21.698;2023-02-11T09:50:04;50.50;;;26.10;;
50309;SDS011;36207;51.850;21.698;2023-02-11T09:53:19;44.10;;;25.20;;
50309;SDS011;36207;51.850;21.698;2023-02-11T09:55:48;46.90;;;25.80;;
50309;SDS011;36207;51.850;21.698;2023-02-11T10:08:40;45.90;;;24.60;;
50309;SDS011;36207;51.850;21.698;2023-02-11T10:13:53;46.00;;;24.50;;
50309;SDS011;36207;51.850;21.698;2023-02-11T10:19:45;41.40;;;23.60;;
50309;SDS011;36207;51.850;21.698;2023-02-11T10:22:26;42.20;;;24.20;;
50309;SDS011;36207;51.850;21.698;2023-02-11T10:24:57;42.40;;;24.90;;
50309;SDS011;36207;51.850;21.698;2023-02-11T10:27:31;41.80;;;22.60;;
50309;SDS011;36207;51.850;21.698;2023-02-11T10:30:05;41.10;;;24.40;;
50309;SDS011;36207;51.850;21.698;2023-02-11T10:32:43;42.60;;;24.30;;
50309;SDS011;36207;51.850;21.698;2023-02-11T10:35:15;41.00;;;23.40;;
50309;SDS011;36207;51.850;21.698;2023-02-11T10:37:46;42.40;;;24.40;;
50309;SDS011;36207;51.850;21.698;2023-02-11T10:40:21;41.70;;;23.50;;
50309;SDS011;36207;51.850;21.698;2023-02-11T10:42:50;39.90;;;23.50;;
50309;SDS011;36207;51.850;21.698;2023-02-11T10:51:21;42.00;;;23.70;;
50309;SDS011;36207;51.850;21.698;2023-02-11T10:53:46;40.40;;;22.80;;
50309;SDS011;36207;51.850;21.698;2023-02-11T10:56:40;36.80;;;22.70;;
50309;SDS011;36207;51.850;21.698;2023-02-11T11:01:57;41.10;;;24.50;;
50309;SDS011;36207;51.850;21.698;2023-02-11T11:06:58;39.20;;;23.40;;
50309;SDS011;36207;51.850;21.698;2023-02-11T11:12:25;35.60;;;21.90;;
50309;SDS011;36207;51.850;21.698;2023-02-11T11:14:56;38.60;;;22.40;;
50309;SDS011;36207;51.850;21.698;2023-02-11T11:17:35;35.40;;;21.50;;
50309;SDS011;36207;51.850;21.698;2023-02-11T11:20:14;32.60;;;20.70;;
50309;SDS011;36207;51.850;21.698;2023-02-11T11:22:46;34.40;;;20.90;;
50309;SDS011;36207;51.850;21.698;2023-02-11T11:25:22;37.50;;;22.10;;
50309;SDS011;36207;51.850;21.698;2023-02-11T11:27:55;35.60;;;21.60;;
50309;SDS011;36207;51.850;21.698;2023-02-11T11:30:25;30.40;;;19.10;;
50309;SDS011;36207;51.850;21.698;2023-02-11T11:32:56;33.40;;;19.80;;
50309;SDS011;36207;51.850;21.698;2023-02-11T11:35:27;34.30;;;20.00;;
50309;SDS011;36207;51.850;21.698;2023-02-11T11:37:58;34.60;;;20.20;;
50309;SDS011;36207;51.850;21.698;2023-02-11T11:40:28;32.30;;;19.60;;
50309;SDS011;36207;51.850;21.698;2023-02-11T11:45:52;30.50;;;19.50;;
50309;SDS011;36207;51.850;21.698;2023-02-11T11:48:27;30.50;;;19.10;;
50309;SDS011;36207;51.850;21.698;2023-02-11T11:51:03;33.90;;;19.20;;
50309;SDS011;36207;51.850;21.698;2023-02-11T11:59:02;30.30;;;18.20;;
50309;SDS011;36207;51.850;21.698;2023-02-11T12:15:03;30.60;;;19.00;;
50309;SDS011;36207;51.850;21.698;2023-02-11T12:20:16;33.00;;;19.20;;
50309;SDS011;36207;51.850;21.698;2023-02-11T12:28:16;32.20;;;20.40;;
50309;SDS011;36207;51.850;21.698;2023-02-11T12:36:07;32.60;;;20.50;;
50309;SDS011;36207;51.850;21.698;2023-02-11T12:47:12;31.90;;;20.00;;
50309;SDS011;36207;51.850;21.698;2023-02-11T12:49:44;36.90;;;21.60;;
50309;SDS011;36207;51.850;21.698;2023-02-11T12:55:27;35.60;;;21.60;;
50309;SDS011;36207;51.850;21.698;2023-02-11T12:57:53;33.60;;;20.80;;
50309;SDS011;36207;51.850;21.698;2023-02-11T13:00:32;38.10;;;22.90;;
50309;SDS011;36207;51.850;21.698;2023-02-11T13:03:24;38.60;;;21.90;;
50309;SDS011;36207;51.850;21.698;2023-02-11T13:08:27;37.90;;;21.50;;
50309;SDS011;36207;51.850;21.698;2023-02-11T13:11:04;37.60;;;21.50;;
50309;SDS011;36207;51.850;21.698;2023-02-11T13:13:45;36.90;;;21.60;;
50309;SDS011;36207;51.850;21.698;2023-02-11T13:19:14;40.10;;;23.20;;
50309;SDS011;36207;51.850;21.698;2023-02-11T13:24:36;36.80;;;22.50;;
50309;SDS011;36207;51.850;21.698;2023-02-11T13:30:28;40.40;;;23.20;;
50309;SDS011;36207;51.850;21.698;2023-02-11T13:35:42;38.30;;;22.90;;
50309;SDS011;36207;51.850;21.698;2023-02-11T13:38:22;43.00;;;24.50;;
50309;SDS011;36207;51.850;21.698;2023-02-11T13:49:31;40.40;;;22.70;;
50309;SDS011;36207;51.850;21.698;2023-02-11T13:52:14;41.40;;;23.60;;
50309;SDS011;36207;51.850;21.698;2023-02-11T13:54:53;39.00;;;22.10;;
50309;SDS011;36207;51.850;21.698;2023-02-11T13:57:32;42.20;;;24.30;;
50309;SDS011;36207;51.850;21.698;2023-02-11T14:00:41;40.80;;;24.20;;
50309;SDS011;36207;51.850;21.698;2023-02-11T14:08:57;41.40;;;24.00;;
50309;SDS011;36207;51.850;21.698;2023-02-11T14:19:30;43.00;;;24.10;;
50309;SDS011;36207;51.850;21.698;2023-02-11T14:24:47;42.70;;;23.70;;
50309;SDS011;36207;51.850;21.698;2023-02-11T14:29:58;43.60;;;24.90;;
50309;SDS011;36207;51.850;21.698;2023-02-11T14:35:29;46.00;;;25.30;;
50309;SDS011;36207;51.850;21.698;2023-02-11T14:38:39;42.80;;;24.80;;
50309;SDS011;36207;51.850;21.698;2023-02-11T14:41:25;44.10;;;24.90;;
50309;SDS011;36207;51.850;21.698;2023-02-11T14:43:57;46.50;;;24.60;;
50309;SDS011;36207;51.850;21.698;2023-02-11T14:46:27;43.80;;;25.10;;
50309;SDS011;36207;51.850;21.698;2023-02-11T14:48:59;45.10;;;24.80;;
50309;SDS011;36207;51.850;21.698;2023-02-11T14:51:29;47.50;;;25.80;;
50309;SDS011;36207;51.850;21.698;2023-02-11T14:54:03;45.30;;;25.60;;
50309;SDS011;36207;51.850;21.698;2023-02-11T14:56:39;47.30;;;25.30;;
50309;SDS011;36207;51.850;21.698;2023-02-11T14:59:17;45.90;;;25.50;;
50309;SDS011;36207;51.850;21.698;2023-02-11T15:01:48;45.90;;;26.00;;
50309;SDS011;36207;51.850;21.698;2023-02-11T15:04:23;43.60;;;25.10;;
50309;SDS011;36207;51.850;21.698;2023-02-11T15:06:58;45.40;;;25.50;;
50309;SDS011;36207;51.850;21.698;2023-02-11T15:09:32;46.70;;;25.80;;
50309;SDS011;36207;51.850;21.698;2023-02-11T15:12:10;46.40;;;26.40;;
50309;SDS011;36207;51.850;21.698;2023-02-11T15:14:47;44.50;;;25.80;;
50309;SDS011;36207;51.850;21.698;2023-02-11T15:17:16;48.40;;;26.20;;
50309;SDS011;36207;51.850;21.698;2023-02-11T15:19:46;50.00;;;27.30;;
50309;SDS011;36207;51.850;21.698;2023-02-11T15:22:24;49.10;;;27.30;;
50309;SDS011;36207;51.850;21.698;2023-02-11T15:24:57;48.00;;;26.40;;
50309;SDS011;36207;51.850;21.698;2023-02-11T15:27:42;48.30;;;26.80;;
50309;SDS011;36207;51.850;21.698;2023-02-11T15:30:18;46.60;;;26.60;;
50309;SDS011;36207;51.850;21.698;2023-02-11T15:32:52;48.90;;;26.70;;
50309;SDS011;36207;51.850;21.698;2023-02-11T15:35:25;46.90;;;26.80;;
50309;SDS011;36207;51.850;21.698;2023-02-11T15:37:54;48.50;;;27.60;;
50309;SDS011;36207;51.850;21.698;2023-02-11T15:40:22;46.10;;;26.80;;
50309;SDS011;36207;51.850;21.698;2023-02-11T15:43:02;45.50;;;26.10;;
50309;SDS011;36207;51.850;21.698;2023-02-11T15:45:33;46.70;;;26.10;;
50309;SDS011;36207;51.850;21.698;2023-02-11T15:48:11;46.90;;;26.40;;
50309;SDS011;36207;51.850;21.698;2023-02-11T15:50:49;45.80;;;25.70;;
50309;SDS011;36207;51.850;21.698;2023-02-11T15:53:25;47.10;;;26.10;;
50309;SDS011;36207;51.850;21.698;2023-02-11T15:56:13;48.20;;;26.60;;
50309;SDS011;36207;51.850;21.698;2023-02-11T16:01:40;47.10;;;25.80;;
50309;SDS011;36207;51.850;21.698;2023-02-11T16:04:12;47.10;;;25.80;;
50309;SDS011;36207;51.850;21.698;2023-02-11T16:06:41;43.20;;;25.50;;
50309;SDS011;36207;51.850;21.698;2023-02-11T16:11:36;42.50;;;24.90;;
50309;SDS011;36207;51.850;21.698;2023-02-11T16:14:26;48.30;;;26.20;;
50309;SDS011;36207;51.850;21.698;2023-02-11T16:19:21;45.60;;;24.80;;
50309;SDS011;36207;51.850;21.698;2023-02-11T16:21:49;44.20;;;25.50;;
50309;SDS011;36207;51.850;21.698;2023-02-11T16:24:29;44.50;;;25.40;;
50309;SDS011;36207;51.850;21.698;2023-02-11T16:27:01;42.50;;;24.90;;
50309;SDS011;36207;51.850;21.698;2023-02-11T16:29:30;44.20;;;25.30;;
50309;SDS011;36207;51.850;21.698;2023-02-11T16:32:04;45.00;;;25.40;;
50309;SDS011;36207;51.850;21.698;2023-02-11T16:34:33;42.60;;;25.00;;
50309;SDS011;36207;51.850;21.698;2023-02-11T16:36:59;42.70;;;24.80;;
50309;SDS011;36207;51.850;21.698;2023-02-11T16:39:28;45.40;;;24.60;;
50309;SDS011;36207;51.850;21.698;2023-02-11T16:41:54;43.00;;;23.60;;
50309;SDS011;36207;51.850;21.698;2023-02-11T16:44:20;41.50;;;23.40;;
50309;SDS011;36207;51.850;21.698;2023-02-11T16:46:46;42.50;;;23.90;;
50309;SDS011;36207;51.850;21.698;2023-02-11T16:49:20;43.30;;;25.40;;
50309;SDS011;36207;51.850;21.698;2023-02-11T16:51:54;39.90;;;23.30;;
50309;SDS011;36207;51.850;21.698;2023-02-11T16:54:29;40.30;;;24.00;;
50309;SDS011;36207;51.850;21.698;2023-02-11T16:56:55;45.10;;;24.50;;
50309;SDS011;36207;51.850;21.698;2023-02-11T16:59:22;43.60;;;25.60;;
50309;SDS011;36207;51.850;21.698;2023-02-11T17:01:48;44.20;;;24.60;;
50309;SDS011;36207;51.850;21.698;2023-02-11T17:04:20;41.40;;;24.00;;
50309;SDS011;36207;51.850;21.698;2023-02-11T17:06:49;39.90;;;23.60;;
50309;SDS011;36207;51.850;21.698;2023-02-11T17:09:19;40.90;;;23.80;;
50309;SDS011;36207;51.850;21.698;2023-02-11T17:11:50;40.20;;;23.40;;
50309;SDS011;36207;51.850;21.698;2023-02-11T17:14:17;40.70;;;23.50;;